createdAt,value
2022-09-27T00:01:03.563Z,1.05
2022-09-27T00:03:30.062Z,1.50
2022-09-27T00:06:05.843Z,1.23
2022-09-27T00:08:33.371Z,1.35
2022-09-27T00:11:00.952Z,1.30
2022-09-27T00:13:27.837Z,1.20
2022-09-27T00:15:58.008Z,1.40
2022-09-27T00:18:24.434Z,1.00
2022-09-27T00:20:50.972Z,1.00
2022-09-27T00:23:17.347Z,1.35
2022-09-27T00:25:43.729Z,1.40
2022-09-27T00:28:10.117Z,1.38
2022-09-27T00:30:41.642Z,1.15
2022-09-27T00:33:08.036Z,1.40
2022-09-27T00:35:34.372Z,0.98
2022-09-27T00:38:00.751Z,1.13
2022-09-27T00:40:27.412Z,0.90
2022-09-27T00:42:53.817Z,1.13
2022-09-27T00:45:20.184Z,1.00
2022-09-27T00:47:59.017Z,1.10
2022-09-27T00:50:30.902Z,1.25
2022-09-27T00:53:15.708Z,1.10
2022-09-27T00:55:45.029Z,1.13
2022-09-27T00:58:13.321Z,1.00
2022-09-27T01:00:42.799Z,1.10
2022-09-27T01:03:09.697Z,1.10
2022-09-27T01:05:36.031Z,1.17
2022-09-27T01:08:02.487Z,0.98
2022-09-27T01:10:31.857Z,1.10
2022-09-27T01:13:10.250Z,1.20
2022-09-27T01:15:43.513Z,1.20
2022-09-27T01:18:18.853Z,1.05
2022-09-27T01:21:04.402Z,1.05
2022-09-27T01:23:57.873Z,1.15
2022-09-27T01:26:42.905Z,0.90
2022-09-27T01:29:24.716Z,1.30
2022-09-27T01:31:51.103Z,0.80
2022-09-27T01:34:26.370Z,1.40
2022-09-27T01:36:57.478Z,1.20
2022-09-27T01:39:33.434Z,1.15
2022-09-27T01:42:15.577Z,1.20
2022-09-27T01:44:47.531Z,1.20
2022-09-27T01:47:16.784Z,1.15
2022-09-27T01:49:47.655Z,1.20
2022-09-27T01:52:16.817Z,1.23
2022-09-27T01:54:45.158Z,1.08
2022-09-27T01:57:13.650Z,1.20
2022-09-27T01:59:49.881Z,1.25
2022-09-27T02:02:17.768Z,1.20
2022-09-27T02:04:44.827Z,1.65
2022-09-27T02:07:17.271Z,1.25
2022-09-27T02:09:52.982Z,1.08
2022-09-27T02:15:00.096Z,1.15
2022-09-27T02:17:44.850Z,1.25
2022-09-27T02:20:14.371Z,1.40
2022-09-27T02:22:59.372Z,1.25
2022-09-27T02:25:25.721Z,1.20
2022-09-27T02:27:52.032Z,1.33
2022-09-27T02:30:18.397Z,1.55
2022-09-27T02:32:44.995Z,1.30
2022-09-27T02:35:17.116Z,1.30
2022-09-27T02:37:43.530Z,1.35
2022-09-27T02:40:10.558Z,1.33
2022-09-27T02:42:37.172Z,1.23
2022-09-27T02:45:04.766Z,1.33
2022-09-27T02:47:49.288Z,1.27
2022-09-27T02:50:26.176Z,1.40
2022-09-27T02:52:55.337Z,1.60
2022-09-27T02:55:21.676Z,1.40
2022-09-27T02:58:11.032Z,1.33
2022-09-27T03:00:43.142Z,1.30
2022-09-27T03:03:13.268Z,1.20
2022-09-27T03:05:45.645Z,1.25
2022-09-27T03:08:12.742Z,1.15
2022-09-27T03:10:39.105Z,1.55
2022-09-27T03:13:05.576Z,1.50
2022-09-27T03:15:32.063Z,1.30
2022-09-27T03:17:58.376Z,1.13
2022-09-27T03:20:24.710Z,1.20
2022-09-27T03:22:51.090Z,1.25
2022-09-27T03:25:17.441Z,1.20
2022-09-27T03:27:44.316Z,1.08
2022-09-27T03:30:11.124Z,1.40
2022-09-27T03:32:40.812Z,1.30
2022-09-27T03:35:09.764Z,1.63
2022-09-27T03:37:36.182Z,1.70
2022-09-27T03:40:02.483Z,1.75
2022-09-27T03:42:28.834Z,1.45
2022-09-27T03:44:55.127Z,1.80
2022-09-27T03:47:22.355Z,1.95
2022-09-27T03:49:48.964Z,2.10
2022-09-27T03:52:15.745Z,1.80
2022-09-27T03:54:42.804Z,2.17
2022-09-27T03:57:09.154Z,1.75
2022-09-27T03:59:35.538Z,2.35
2022-09-27T04:02:01.994Z,1.98
2022-09-27T04:04:28.523Z,2.20
2022-09-27T04:06:55.028Z,2.17
2022-09-27T04:09:21.334Z,2.08
2022-09-27T04:11:49.077Z,2.05
2022-09-27T04:14:15.403Z,1.50
2022-09-27T04:16:41.855Z,2.05
2022-09-27T04:19:08.789Z,1.90
2022-09-27T04:21:35.586Z,1.90
2022-09-27T04:24:05.408Z,1.65
2022-09-27T04:26:31.793Z,2.22
2022-09-27T04:28:58.357Z,2.03
2022-09-27T04:31:24.819Z,1.70
2022-09-27T04:33:51.253Z,1.83
2022-09-27T04:36:28.450Z,2.00
2022-09-27T04:39:05.432Z,2.30
2022-09-27T04:41:31.763Z,2.20
2022-09-27T04:44:00.271Z,2.08
2022-09-27T04:46:31.689Z,2.13
2022-09-27T04:49:01.228Z,1.92
2022-09-27T04:51:27.853Z,2.10
2022-09-27T04:53:55.893Z,2.20
2022-09-27T04:56:22.386Z,1.90
2022-09-27T04:58:48.704Z,2.20
2022-09-27T05:01:15.052Z,2.20
2022-09-27T05:03:42.282Z,2.10
2022-09-27T05:06:08.679Z,2.22
2022-09-27T05:08:35.005Z,2.17
2022-09-27T05:11:01.523Z,1.95
2022-09-27T05:13:27.962Z,2.38
2022-09-27T05:15:54.379Z,2.30
2022-09-27T05:18:20.934Z,2.53
2022-09-27T05:20:47.297Z,2.17
2022-09-27T05:23:13.653Z,1.88
2022-09-27T05:25:40.006Z,2.05
2022-09-27T05:28:06.375Z,2.13
2022-09-27T05:30:32.846Z,1.83
2022-09-27T05:32:59.335Z,2.00
2022-09-27T05:35:26.152Z,2.00
2022-09-27T05:37:53.317Z,1.80
2022-09-27T05:40:39.639Z,1.80
2022-09-27T05:43:06.109Z,1.98
2022-09-27T05:45:32.463Z,2.10
2022-09-27T05:47:59.048Z,1.73
2022-09-27T05:50:26.212Z,1.90
2022-09-27T05:52:53.431Z,1.90
2022-09-27T05:55:19.967Z,1.98
2022-09-27T05:58:00.135Z,1.63
2022-09-27T06:00:27.193Z,1.70
2022-09-27T06:02:55.165Z,1.63
2022-09-27T06:05:22.057Z,1.73
2022-09-27T06:07:49.677Z,1.83
2022-09-27T06:10:17.484Z,1.70
2022-09-27T06:12:43.824Z,1.30
2022-09-27T06:15:10.421Z,1.55
2022-09-27T06:17:36.791Z,1.42
2022-09-27T06:20:03.684Z,1.48
2022-09-27T06:22:30.066Z,1.52
2022-09-27T06:24:56.435Z,1.58
2022-09-27T06:27:22.763Z,1.50
2022-09-27T06:29:49.120Z,1.30
2022-09-27T06:32:15.458Z,1.30
2022-09-27T06:34:41.782Z,1.20
2022-09-27T06:37:10.951Z,1.05
2022-09-27T06:39:37.272Z,1.20
2022-09-27T06:42:03.615Z,1.20
2022-09-27T06:44:29.909Z,1.20
2022-09-27T06:46:56.861Z,0.90
2022-09-27T06:49:23.318Z,1.02
2022-09-27T06:51:50.199Z,1.38
2022-09-27T06:54:16.747Z,0.90
2022-09-27T06:56:43.120Z,0.80
2022-09-27T06:59:38.793Z,0.80
2022-09-27T07:02:05.210Z,0.80
2022-09-27T07:04:32.261Z,0.70
2022-09-27T07:06:58.825Z,0.75
2022-09-27T07:09:25.247Z,0.70
2022-09-27T07:11:55.474Z,0.80
2022-09-27T07:14:21.981Z,0.60
2022-09-27T07:16:48.370Z,0.57
2022-09-27T07:19:15.280Z,0.50
2022-09-27T07:21:41.716Z,0.50
2022-09-27T07:24:08.043Z,0.60
2022-09-27T07:26:34.425Z,0.50
2022-09-27T07:29:01.611Z,0.63
2022-09-27T07:31:28.912Z,0.45
2022-09-27T07:33:55.298Z,0.40
2022-09-27T07:36:21.647Z,0.40
2022-09-27T07:38:48.044Z,0.50
2022-09-27T07:41:14.868Z,0.60
2022-09-27T07:43:41.884Z,0.57
2022-09-27T07:46:08.325Z,0.63
2022-09-27T07:48:34.888Z,0.45
2022-09-27T07:51:01.226Z,0.50
2022-09-27T07:53:27.765Z,0.90
2022-09-27T07:55:54.189Z,0.30
2022-09-27T07:58:20.858Z,0.40
2022-09-27T08:00:47.233Z,0.35
2022-09-27T08:03:17.559Z,0.30
2022-09-27T08:05:44.642Z,1.08
2022-09-27T08:08:11.233Z,0.40
2022-09-27T08:10:39.807Z,0.50
2022-09-27T08:13:06.174Z,0.50
2022-09-27T08:15:33.296Z,0.40
2022-09-27T08:17:59.660Z,0.35
2022-09-27T08:20:26.062Z,0.40
2022-09-27T08:22:52.647Z,0.45
2022-09-27T08:25:19.012Z,0.50
2022-09-27T08:27:54.396Z,0.50
2022-09-27T08:30:20.682Z,0.55
2022-09-27T08:32:46.961Z,0.30
2022-09-27T08:35:15.378Z,0.40
2022-09-27T08:37:41.675Z,0.60
2022-09-27T08:40:10.369Z,0.50
2022-09-27T08:42:43.174Z,0.50
2022-09-27T08:45:23.540Z,0.63
2022-09-27T08:47:54.081Z,0.40
2022-09-27T08:50:40.090Z,0.55
2022-09-27T08:53:24.951Z,0.55
2022-09-27T08:55:53.336Z,0.98
2022-09-27T08:58:25.835Z,0.50
2022-09-27T09:00:55.410Z,0.70
2022-09-27T09:03:24.446Z,0.50
2022-09-27T09:05:58.801Z,0.50
2022-09-27T09:08:54.584Z,0.50
2022-09-27T09:11:39.741Z,0.65
2022-09-27T09:14:08.269Z,0.50
2022-09-27T09:16:38.252Z,0.57
2022-09-27T09:19:31.713Z,0.47
2022-09-27T09:21:58.005Z,0.70
2022-09-27T09:24:43.784Z,0.40
2022-09-27T09:27:22.452Z,0.22
2022-09-27T09:29:57.917Z,0.30
2022-09-27T09:32:27.277Z,0.40
2022-09-27T09:35:15.070Z,0.30
2022-09-27T09:37:44.715Z,0.30
2022-09-27T09:40:26.298Z,0.28
2022-09-27T09:42:58.750Z,0.40
2022-09-27T09:45:30.368Z,0.35
2022-09-27T09:48:07.499Z,0.20
2022-09-27T09:50:42.319Z,0.30
2022-09-27T09:53:12.943Z,0.43
2022-09-27T09:55:40.332Z,0.40
2022-09-27T09:58:25.687Z,0.35
2022-09-27T10:00:54.196Z,0.40
2022-09-27T10:03:20.583Z,0.80
2022-09-27T10:05:47.322Z,0.40
2022-09-27T10:08:20.536Z,0.32
2022-09-27T10:10:47.066Z,0.45
2022-09-27T10:13:17.824Z,0.43
2022-09-27T10:15:45.622Z,0.30
2022-09-27T10:18:14.572Z,0.60
2022-09-27T10:20:47.074Z,0.50
2022-09-27T10:23:14.514Z,0.55
2022-09-27T10:25:50.267Z,0.50
2022-09-27T10:28:36.149Z,0.50
2022-09-27T10:31:10.644Z,0.40
2022-09-27T10:33:37.931Z,0.47
2022-09-27T10:36:04.383Z,0.32
2022-09-27T10:38:32.706Z,0.32
2022-09-27T10:41:16.896Z,0.40
2022-09-27T10:43:43.472Z,0.40
2022-09-27T10:46:14.030Z,0.50
2022-09-27T10:48:42.131Z,0.50
2022-09-27T10:51:21.970Z,0.50
2022-09-27T10:53:48.393Z,0.40
2022-09-27T10:56:26.327Z,0.50
2022-09-27T10:58:52.845Z,0.80
2022-09-27T11:01:19.593Z,0.50
2022-09-27T11:03:54.294Z,0.70
2022-09-27T11:06:23.728Z,0.68
2022-09-27T11:08:51.378Z,0.73
2022-09-27T11:11:19.963Z,0.50
2022-09-27T11:14:04.322Z,0.47
2022-09-27T11:16:34.735Z,0.45
2022-09-27T11:19:15.142Z,0.38
2022-09-27T11:22:01.584Z,0.40
2022-09-27T11:26:58.073Z,0.35
2022-09-27T11:29:40.900Z,0.40
2022-09-27T11:32:28.648Z,0.28
2022-09-27T11:35:13.937Z,0.30
2022-09-27T11:37:49.405Z,0.43
2022-09-27T11:40:15.787Z,0.45
2022-09-27T11:43:00.809Z,0.50
2022-09-27T11:46:14.198Z,0.60
2022-09-27T11:48:41.021Z,0.45
2022-09-27T11:51:22.814Z,0.50
2022-09-27T11:54:08.114Z,0.57
2022-09-27T11:56:43.694Z,0.50
2022-09-27T11:59:10.136Z,0.47
2022-09-27T12:02:00.122Z,0.60
2022-09-27T12:04:36.162Z,0.70
2022-09-27T12:07:11.950Z,0.57
2022-09-27T12:12:06.410Z,0.50
2022-09-27T12:14:52.999Z,0.50
2022-09-27T12:17:27.675Z,0.52
2022-09-27T12:19:55.979Z,0.80
2022-09-27T12:22:54.088Z,0.65
2022-09-27T12:25:20.582Z,0.60
2022-09-27T12:27:51.124Z,0.50
2022-09-27T12:30:17.521Z,0.80
2022-09-27T12:32:49.879Z,0.90
2022-09-27T12:35:24.820Z,0.68
2022-09-27T12:37:51.231Z,0.60
2022-09-27T12:40:21.538Z,0.85
2022-09-27T12:42:53.025Z,0.60
2022-09-27T12:45:25.475Z,0.73
2022-09-27T12:48:07.016Z,0.80
2022-09-27T12:50:33.294Z,0.80
2022-09-27T12:53:06.042Z,0.68
2022-09-27T12:55:44.548Z,0.60
2022-09-27T12:58:31.975Z,0.35
2022-09-27T13:01:00.864Z,0.40
2022-09-27T13:03:46.022Z,0.40
2022-09-27T13:06:12.447Z,0.40
2022-09-27T13:08:54.601Z,0.30
2022-09-27T13:11:36.732Z,0.55
2022-09-27T13:14:04.367Z,0.60
2022-09-27T13:16:30.918Z,0.50
2022-09-27T13:19:01.681Z,0.50
2022-09-27T13:21:49.956Z,0.60
2022-09-27T13:24:31.357Z,0.65
2022-09-27T13:27:01.574Z,0.80
2022-09-27T13:29:29.250Z,0.60
2022-09-27T13:31:57.773Z,0.80
2022-09-27T13:34:46.982Z,0.90
2022-09-27T13:37:40.047Z,1.00
2022-09-27T13:40:29.987Z,1.00
2022-09-27T13:43:02.732Z,0.65
2022-09-27T13:45:32.441Z,0.75
2022-09-27T13:47:59.244Z,0.80
2022-09-27T13:50:36.316Z,0.80
2022-09-27T13:53:17.990Z,0.60
2022-09-27T13:55:48.328Z,0.80
2022-09-27T13:58:30.087Z,0.52
2022-09-27T14:00:59.181Z,0.85
2022-09-27T14:03:25.558Z,1.13
2022-09-27T14:05:51.852Z,0.90
2022-09-27T14:08:25.865Z,1.10
2022-09-27T14:10:52.878Z,0.80
2022-09-27T14:13:20.380Z,0.95
2022-09-27T14:15:47.606Z,0.57
2022-09-27T14:18:15.082Z,0.50
2022-09-27T14:20:50.152Z,0.50
2022-09-27T14:23:18.350Z,0.90
2022-09-27T14:25:45.984Z,0.80
2022-09-27T14:28:38.932Z,1.10
2022-09-27T14:31:16.154Z,1.30
2022-09-27T14:33:42.569Z,1.30
2022-09-27T14:36:35.725Z,1.13
2022-09-27T14:39:02.093Z,1.45
2022-09-27T14:41:35.330Z,1.20
2022-09-27T14:44:01.835Z,1.27
2022-09-27T14:46:29.770Z,1.30
2022-09-27T14:48:56.385Z,1.40
2022-09-27T14:51:30.293Z,1.40
2022-09-27T14:54:00.499Z,1.25
2022-09-27T14:56:30.482Z,1.40
2022-09-27T14:59:17.185Z,1.60
2022-09-27T15:01:50.603Z,1.30
2022-09-27T15:04:17.525Z,1.67
2022-09-27T15:06:45.429Z,1.55
2022-09-27T15:09:14.095Z,1.73
2022-09-27T15:11:41.671Z,2.25
2022-09-27T15:14:13.311Z,4.97
2022-09-27T15:16:39.906Z,2.42
2022-09-27T15:19:12.733Z,1.15
2022-09-27T15:21:39.479Z,1.33
2022-09-27T15:24:05.872Z,1.30
2022-09-27T15:26:37.749Z,1.80
2022-09-27T15:29:04.651Z,1.73
2022-09-27T15:31:35.291Z,1.67
2022-09-27T15:34:02.203Z,2.00
2022-09-27T15:36:47.422Z,1.65
2022-09-27T15:39:17.192Z,1.93
2022-09-27T15:42:22.558Z,3.22
2022-09-27T15:44:58.259Z,2.55
2022-09-27T15:49:50.798Z,2.30
2022-09-27T15:52:37.095Z,2.70
2022-09-27T15:55:03.451Z,2.00
2022-09-27T15:57:29.817Z,2.00
2022-09-27T15:59:56.166Z,1.73
2022-09-27T16:02:22.545Z,1.88
2022-09-27T16:04:48.879Z,2.05
2022-09-27T16:07:15.350Z,1.73
2022-09-27T16:09:41.755Z,1.92
2022-09-27T16:12:08.856Z,2.58
2022-09-27T16:14:35.239Z,1.55
2022-09-27T16:17:01.630Z,2.30
2022-09-27T16:19:27.930Z,1.60
2022-09-27T16:21:54.250Z,1.70
2022-09-27T16:24:20.581Z,1.92
2022-09-27T16:26:46.904Z,1.27
2022-09-27T16:29:16.856Z,1.60
2022-09-27T16:31:44.067Z,3.80
2022-09-27T16:34:10.626Z,9.30
2022-09-27T16:36:37.556Z,12.48
2022-09-27T16:39:06.835Z,3.35
2022-09-27T16:41:33.332Z,4.70
2022-09-27T16:44:00.256Z,3.17
2022-09-27T16:46:27.431Z,2.90
2022-09-27T16:48:55.681Z,3.15
2022-09-27T16:51:40.628Z,4.05
2022-09-27T16:54:07.456Z,2.20
2022-09-27T16:56:34.536Z,2.30
2022-09-27T16:59:04.904Z,1.13
2022-09-27T17:01:31.647Z,0.80
2022-09-27T17:03:59.654Z,0.90
2022-09-27T17:06:28.487Z,0.80
2022-09-27T17:08:55.014Z,0.90
2022-09-27T17:11:21.558Z,0.70
2022-09-27T17:13:49.314Z,0.80
2022-09-27T17:16:16.032Z,0.75
2022-09-27T17:18:42.451Z,0.80
2022-09-27T17:21:09.153Z,0.70
2022-09-27T17:23:35.816Z,0.60
2022-09-27T17:26:22.439Z,0.68
2022-09-27T17:28:49.855Z,1.15
2022-09-27T17:31:17.679Z,0.77
2022-09-27T17:33:48.178Z,0.85
2022-09-27T17:36:15.765Z,0.77
2022-09-27T17:38:42.117Z,0.88
2022-09-27T17:41:10.903Z,0.90
2022-09-27T17:43:39.392Z,1.13
2022-09-27T17:46:10.176Z,1.60
2022-09-27T17:48:55.284Z,1.17
2022-09-27T17:51:21.908Z,0.93
2022-09-27T17:53:48.347Z,0.95
2022-09-27T17:56:14.936Z,1.20
2022-09-27T17:58:48.336Z,1.00
2022-09-27T18:01:15.855Z,1.17
2022-09-27T18:03:42.932Z,1.30
2022-09-27T18:06:10.324Z,1.50
2022-09-27T18:08:36.634Z,1.40
2022-09-27T18:11:13.705Z,1.38
2022-09-27T18:13:40.962Z,1.08
2022-09-27T18:16:11.681Z,1.30
2022-09-27T18:18:39.314Z,1.60
2022-09-27T18:21:07.118Z,1.70
2022-09-27T18:23:33.712Z,1.85
2022-09-27T18:26:00.071Z,1.75
2022-09-27T18:28:27.833Z,1.83
2022-09-27T18:30:54.219Z,2.17
2022-09-27T18:33:20.880Z,2.38
2022-09-27T18:35:47.564Z,2.58
2022-09-27T18:38:16.133Z,2.90
2022-09-27T18:40:56.120Z,3.15
2022-09-27T18:43:26.347Z,2.50
2022-09-27T18:45:52.881Z,2.88
2022-09-27T18:48:19.205Z,3.50
2022-09-27T18:50:45.740Z,3.50
2022-09-27T18:53:12.161Z,3.08
2022-09-27T18:55:38.778Z,3.63
2022-09-27T18:58:05.091Z,3.05
2022-09-27T19:00:31.586Z,2.88
2022-09-27T19:02:57.912Z,3.20
2022-09-27T19:05:25.561Z,3.13
2022-09-27T19:07:52.934Z,2.70
2022-09-27T19:10:19.269Z,2.97
2022-09-27T19:12:45.645Z,2.33
2022-09-27T19:15:11.992Z,2.60
2022-09-27T19:17:38.371Z,2.40
2022-09-27T19:20:07.715Z,2.35
2022-09-27T19:22:34.159Z,1.83
2022-09-27T19:25:03.123Z,1.75
2022-09-27T19:27:30.335Z,2.15
2022-09-27T19:30:01.553Z,1.88
2022-09-27T19:32:27.885Z,1.70
2022-09-27T19:34:54.316Z,1.73
2022-09-27T19:37:20.721Z,1.80
2022-09-27T19:39:47.025Z,1.85
2022-09-27T19:42:13.445Z,1.58
2022-09-27T19:44:39.763Z,1.73
2022-09-27T19:47:06.141Z,1.50
2022-09-27T19:49:32.531Z,1.70
2022-09-27T19:51:59.292Z,1.65
2022-09-27T19:54:25.640Z,1.60
2022-09-27T19:56:52.053Z,1.40
2022-09-27T19:59:18.540Z,1.70
2022-09-27T20:01:45.130Z,1.40
2022-09-27T20:04:12.622Z,1.40
2022-09-27T20:06:38.915Z,1.67
2022-09-27T20:09:05.448Z,1.60
2022-09-27T20:11:33.197Z,1.45
2022-09-27T20:13:59.971Z,1.58
2022-09-27T20:16:26.910Z,1.50
2022-09-27T20:18:54.495Z,1.40
2022-09-27T20:21:21.747Z,1.35
2022-09-27T20:23:48.651Z,1.10
2022-09-27T20:26:16.145Z,1.10
2022-09-27T20:28:43.509Z,1.10
2022-09-27T20:31:11.043Z,1.27
2022-09-27T20:33:52.531Z,1.70
2022-09-27T20:36:18.949Z,1.20
2022-09-27T20:38:46.138Z,1.20
2022-09-27T20:41:13.633Z,1.17
2022-09-27T20:43:40.281Z,1.08
2022-09-27T20:46:07.672Z,1.20
2022-09-27T20:48:34.319Z,1.38
2022-09-27T20:51:04.404Z,1.00
2022-09-27T20:53:31.365Z,1.38
2022-09-27T20:56:04.562Z,1.33
2022-09-27T20:58:32.219Z,1.20
2022-09-27T21:01:04.823Z,1.10
2022-09-27T21:03:31.251Z,1.15
2022-09-27T21:05:57.983Z,0.88
2022-09-27T21:08:24.594Z,1.02
2022-09-27T21:10:53.017Z,0.98
2022-09-27T21:13:19.775Z,1.00
2022-09-27T21:15:46.205Z,1.10
2022-09-27T21:18:12.872Z,0.90
2022-09-27T21:20:39.234Z,1.08
2022-09-27T21:23:05.902Z,0.85
2022-09-27T21:25:32.479Z,1.00
2022-09-27T21:27:58.794Z,0.85
2022-09-27T21:30:25.285Z,0.77
2022-09-27T21:32:55.141Z,0.80
2022-09-27T21:35:22.050Z,0.90
2022-09-27T21:37:48.470Z,0.90
2022-09-27T21:40:15.364Z,1.00
2022-09-27T21:42:42.117Z,0.82
2022-09-27T21:45:08.868Z,1.10
2022-09-27T21:47:35.261Z,0.80
2022-09-27T21:50:01.558Z,0.80
2022-09-27T21:52:27.942Z,0.80
2022-09-27T21:54:54.425Z,1.00
2022-09-27T21:57:20.732Z,0.90
2022-09-27T21:59:47.093Z,0.98
2022-09-27T22:02:13.572Z,0.90
2022-09-27T22:04:39.914Z,0.98
2022-09-27T22:07:06.230Z,0.85
2022-09-27T22:09:32.545Z,0.85
2022-09-27T22:12:00.039Z,1.00
2022-09-27T22:14:26.472Z,0.73
2022-09-27T22:16:52.765Z,1.10
2022-09-27T22:19:19.423Z,1.00
2022-09-27T22:21:46.011Z,1.13
2022-09-27T22:24:13.890Z,1.20
2022-09-27T22:26:41.228Z,1.08
2022-09-27T22:29:08.439Z,1.27
2022-09-27T22:31:34.942Z,1.08
2022-09-27T22:34:02.468Z,1.10
2022-09-27T22:36:28.897Z,1.17
2022-09-27T22:38:55.709Z,1.00
2022-09-27T22:41:22.251Z,0.75
2022-09-27T22:43:48.631Z,1.15
2022-09-27T22:46:15.199Z,1.00
2022-09-27T22:48:42.233Z,1.00
2022-09-27T22:51:09.382Z,1.05
2022-09-27T22:53:36.042Z,1.00
2022-09-27T22:56:05.247Z,1.13
2022-09-27T22:58:31.840Z,1.00
2022-09-27T23:00:58.213Z,0.90
2022-09-27T23:03:24.695Z,1.02
2022-09-27T23:05:51.135Z,1.15
2022-09-27T23:08:17.465Z,1.20
2022-09-27T23:10:43.802Z,1.13
2022-09-27T23:13:10.505Z,1.30
2022-09-27T23:15:36.867Z,1.23
2022-09-27T23:18:03.159Z,1.10
2022-09-27T23:20:30.042Z,1.40
2022-09-27T23:22:56.335Z,1.05
2022-09-27T23:25:22.615Z,1.00
2022-09-27T23:27:50.186Z,1.08
2022-09-27T23:30:18.003Z,0.88
2022-09-27T23:32:47.070Z,1.17
2022-09-27T23:35:13.382Z,1.20
2022-09-27T23:37:40.306Z,1.00
2022-09-27T23:40:07.073Z,1.27
2022-09-27T23:42:33.413Z,1.30
2022-09-27T23:45:01.280Z,1.10
2022-09-27T23:47:28.191Z,1.40
2022-09-27T23:49:54.845Z,1.30
2022-09-27T23:52:21.197Z,1.40
2022-09-27T23:54:47.482Z,1.75
2022-09-27T23:57:13.786Z,1.35
2022-09-27T23:59:40.145Z,1.30
